createdAt,value
2023-12-11T00:01:34.754Z,0.50
2023-12-11T00:04:04.888Z,0.45
2023-12-11T00:06:33.372Z,0.70
2023-12-11T00:09:02.038Z,0.57
2023-12-11T00:11:30.462Z,0.50
2023-12-11T00:13:58.904Z,0.47
2023-12-11T00:16:27.328Z,0.80
2023-12-11T00:18:55.807Z,0.63
2023-12-11T00:21:25.630Z,0.70
2023-12-11T00:23:55.360Z,0.57
2023-12-11T00:26:23.832Z,0.70
2023-12-11T00:28:52.240Z,0.50
2023-12-11T00:31:20.749Z,0.50
2023-12-11T00:33:49.450Z,0.60
2023-12-11T00:36:17.953Z,0.70
2023-12-11T00:38:47.697Z,0.63
2023-12-11T00:41:17.406Z,0.60
2023-12-11T00:43:46.807Z,0.73
2023-12-11T00:46:15.915Z,0.65
2023-12-11T00:48:44.503Z,0.43
2023-12-11T00:51:17.623Z,0.47
2023-12-11T00:53:48.708Z,0.50
2023-12-11T00:56:17.746Z,0.55
2023-12-11T00:58:46.372Z,0.50
2023-12-11T01:01:14.995Z,0.50
2023-12-11T01:03:43.657Z,0.40
2023-12-11T01:06:12.166Z,0.47
2023-12-11T01:08:41.180Z,0.38
2023-12-11T01:11:11.203Z,0.47
2023-12-11T01:13:39.836Z,0.40
2023-12-11T01:16:09.072Z,0.32
2023-12-11T01:18:37.648Z,0.45
2023-12-11T01:21:06.633Z,0.55
2023-12-11T01:23:35.049Z,0.60
2023-12-11T01:26:03.577Z,0.40
2023-12-11T01:28:33.676Z,0.50
2023-12-11T01:31:02.072Z,0.50
2023-12-11T01:33:30.529Z,0.50
2023-12-11T01:35:58.963Z,0.68
2023-12-11T01:38:27.295Z,0.45
2023-12-11T01:40:55.663Z,0.50
2023-12-11T01:43:24.514Z,0.57
2023-12-11T01:46:03.131Z,0.40
2023-12-11T01:48:31.802Z,0.50
2023-12-11T01:51:00.643Z,0.60
2023-12-11T01:53:29.868Z,0.50
2023-12-11T01:55:58.666Z,0.70
2023-12-11T01:58:28.487Z,0.50
2023-12-11T02:00:58.442Z,0.40
2023-12-11T02:03:27.313Z,0.43
2023-12-11T02:05:55.760Z,0.40
2023-12-11T02:08:24.652Z,0.32
2023-12-11T02:10:53.079Z,0.40
2023-12-11T02:13:22.560Z,0.40
2023-12-11T02:15:52.402Z,0.30
2023-12-11T02:18:23.322Z,0.30
2023-12-11T02:20:51.881Z,0.57
2023-12-11T02:23:27.595Z,0.40
2023-12-11T02:26:09.943Z,0.38
2023-12-11T02:28:38.725Z,0.45
2023-12-11T02:31:07.906Z,0.30
2023-12-11T02:33:36.569Z,0.28
2023-12-11T02:36:05.388Z,0.30
2023-12-11T02:38:33.816Z,0.40
2023-12-11T02:41:03.877Z,0.30
2023-12-11T02:43:32.304Z,0.20
2023-12-11T02:46:00.689Z,0.30
2023-12-11T02:48:29.133Z,0.20
2023-12-11T02:50:57.609Z,0.38
2023-12-11T02:53:26.098Z,0.20
2023-12-11T02:55:54.529Z,0.20
2023-12-11T02:58:24.325Z,0.22
2023-12-11T03:00:52.919Z,0.30
2023-12-11T03:03:21.405Z,0.10
2023-12-11T03:05:49.903Z,0.20
2023-12-11T03:08:18.304Z,0.20
2023-12-11T03:10:50.135Z,0.10
2023-12-11T03:13:18.933Z,0.20
2023-12-11T03:15:48.963Z,0.20
2023-12-11T03:18:17.381Z,0.20
2023-12-11T03:20:45.885Z,0.10
2023-12-11T03:23:14.339Z,0.38
2023-12-11T03:25:42.701Z,0.20
2023-12-11T03:28:11.099Z,0.30
2023-12-11T03:30:39.521Z,0.15
2023-12-11T03:33:09.395Z,0.10
2023-12-11T03:35:37.755Z,0.20
2023-12-11T03:38:06.104Z,0.30
2023-12-11T03:40:34.456Z,0.30
2023-12-11T03:43:02.878Z,0.30
2023-12-11T03:45:31.331Z,0.30
2023-12-11T03:48:00.152Z,0.30
2023-12-11T03:50:30.245Z,0.35
2023-12-11T03:52:58.611Z,0.30
2023-12-11T03:55:27.006Z,0.30
2023-12-11T03:57:55.393Z,0.30
2023-12-11T04:00:24.500Z,0.35
2023-12-11T04:02:52.882Z,0.35
2023-12-11T04:05:21.242Z,0.40
2023-12-11T04:07:51.062Z,0.52
2023-12-11T04:10:19.656Z,0.50
2023-12-11T04:12:48.069Z,0.30
2023-12-11T04:15:16.526Z,0.30
2023-12-11T04:17:44.945Z,0.30
2023-12-11T04:20:13.680Z,0.40
2023-12-11T04:22:42.059Z,0.40
2023-12-11T04:25:11.982Z,0.30
2023-12-11T04:27:40.382Z,0.30
2023-12-11T04:30:09.810Z,0.30
2023-12-11T04:32:38.365Z,0.40
2023-12-11T04:35:07.344Z,0.38
2023-12-11T04:37:35.696Z,0.40
2023-12-11T04:40:04.959Z,0.55
2023-12-11T04:42:34.772Z,0.43
2023-12-11T04:45:03.132Z,0.50
2023-12-11T04:47:31.907Z,0.60
2023-12-11T04:50:00.716Z,0.40
2023-12-11T04:52:29.138Z,0.45
2023-12-11T04:54:58.686Z,0.20
2023-12-11T04:57:27.212Z,0.40
2023-12-11T04:59:56.936Z,0.30
2023-12-11T05:02:25.332Z,0.30
2023-12-11T05:04:53.757Z,0.60
2023-12-11T05:07:22.162Z,0.20
2023-12-11T05:09:50.687Z,0.20
2023-12-11T05:12:19.116Z,0.30
2023-12-11T05:14:47.683Z,0.30
2023-12-11T05:17:17.497Z,0.30
2023-12-11T05:19:46.094Z,0.30
2023-12-11T05:22:14.543Z,0.25
2023-12-11T05:24:42.917Z,0.30
2023-12-11T05:27:12.646Z,0.40
2023-12-11T05:29:41.033Z,0.25
2023-12-11T05:32:11.332Z,0.30
2023-12-11T05:34:41.118Z,0.20
2023-12-11T05:37:10.274Z,0.47
2023-12-11T05:39:41.453Z,0.20
2023-12-11T05:42:10.166Z,0.40
2023-12-11T05:44:38.927Z,0.40
2023-12-11T05:47:07.409Z,0.60
2023-12-11T05:49:35.924Z,0.50
2023-12-11T05:52:06.624Z,0.50
2023-12-11T05:54:35.018Z,0.80
2023-12-11T05:57:03.381Z,0.82
2023-12-11T05:59:31.746Z,0.63
2023-12-11T06:02:00.137Z,0.73
2023-12-11T06:04:28.573Z,0.90
2023-12-11T06:06:57.558Z,0.70
2023-12-11T06:09:27.357Z,0.90
2023-12-11T06:11:55.738Z,0.73
2023-12-11T06:14:24.646Z,0.40
2023-12-11T06:16:53.031Z,0.30
2023-12-11T06:19:21.550Z,0.30
2023-12-11T06:21:50.661Z,0.43
2023-12-11T06:24:19.037Z,0.40
2023-12-11T06:26:48.809Z,0.40
2023-12-11T06:29:17.230Z,0.40
2023-12-11T06:31:45.664Z,0.28
2023-12-11T06:34:14.065Z,0.45
2023-12-11T06:36:42.526Z,0.40
2023-12-11T06:39:11.416Z,0.43
2023-12-11T06:41:40.233Z,0.35
2023-12-11T06:44:11.037Z,0.40
2023-12-11T06:46:39.677Z,0.55
2023-12-11T06:49:08.219Z,0.40
2023-12-11T06:51:38.502Z,0.50
2023-12-11T06:54:07.091Z,0.60
2023-12-11T06:56:35.462Z,0.50
2023-12-11T06:59:05.928Z,0.50
2023-12-11T07:01:37.103Z,0.65
2023-12-11T07:04:07.016Z,0.50
2023-12-11T07:06:35.749Z,0.70
2023-12-11T07:09:05.546Z,0.77
2023-12-11T07:11:33.908Z,0.90
2023-12-11T07:14:02.374Z,1.10
2023-12-11T07:16:31.071Z,0.80
2023-12-11T07:19:00.985Z,0.90
2023-12-11T07:21:29.402Z,0.63
2023-12-11T07:23:57.750Z,0.35
2023-12-11T07:26:26.132Z,0.68
2023-12-11T07:28:54.850Z,0.60
2023-12-11T07:31:23.355Z,0.63
2023-12-11T07:33:52.813Z,0.82
2023-12-11T07:36:24.481Z,0.65
2023-12-11T07:38:52.857Z,0.70
2023-12-11T07:41:22.286Z,0.50
2023-12-11T07:43:50.631Z,0.60
2023-12-11T07:46:19.631Z,1.02
2023-12-11T07:48:48.597Z,1.00
2023-12-11T07:51:21.461Z,0.88
2023-12-11T07:53:51.291Z,0.80
2023-12-11T07:56:23.766Z,1.60
2023-12-11T07:58:52.422Z,6.00
2023-12-11T08:01:21.287Z,14.35
2023-12-11T08:03:49.967Z,2.50
2023-12-11T08:06:18.665Z,1.23
2023-12-11T08:08:47.083Z,1.25
2023-12-11T08:11:22.068Z,0.88
2023-12-11T08:13:51.221Z,1.95
2023-12-11T08:16:19.719Z,1.40
2023-12-11T08:18:49.543Z,2.05
2023-12-11T08:21:18.566Z,1.30
2023-12-11T08:23:49.080Z,1.10
2023-12-11T08:26:20.286Z,1.20
2023-12-11T08:28:49.226Z,1.00
2023-12-11T08:31:18.027Z,0.70
2023-12-11T08:33:46.692Z,0.88
2023-12-11T08:36:15.102Z,1.00
2023-12-11T08:38:43.462Z,0.90
2023-12-11T08:41:11.832Z,0.52
2023-12-11T08:43:41.759Z,0.40
2023-12-11T08:46:10.231Z,0.43
2023-12-11T08:48:38.779Z,0.32
2023-12-11T08:51:07.563Z,0.55
2023-12-11T08:53:35.917Z,0.77
2023-12-11T08:56:04.468Z,0.50
2023-12-11T08:58:33.008Z,1.08
2023-12-11T09:01:04.725Z,1.02
2023-12-11T09:06:01.293Z,1.90
2023-12-11T09:08:29.692Z,1.70
2023-12-11T09:10:58.088Z,1.70
2023-12-11T09:13:29.257Z,0.63
2023-12-11T09:15:58.392Z,0.70
2023-12-11T09:18:28.448Z,0.70
2023-12-11T09:20:56.940Z,0.70
2023-12-11T09:23:25.330Z,0.90
2023-12-11T09:25:53.686Z,0.70
2023-12-11T09:28:22.093Z,0.60
2023-12-11T09:30:50.623Z,1.10
2023-12-11T09:33:19.119Z,0.98
2023-12-11T09:35:49.026Z,0.68
2023-12-11T09:38:17.362Z,0.50
2023-12-11T09:40:45.700Z,0.75
2023-12-11T09:43:14.604Z,0.50
2023-12-11T09:45:44.626Z,0.73
2023-12-11T09:48:15.151Z,0.60
2023-12-11T09:50:44.190Z,0.80
2023-12-11T09:53:15.208Z,0.70
2023-12-11T09:55:44.960Z,1.00
2023-12-11T09:58:13.642Z,0.38
2023-12-11T10:00:43.627Z,0.80
2023-12-11T10:03:12.281Z,1.13
2023-12-11T10:05:40.814Z,1.00
2023-12-11T10:08:09.201Z,1.10
2023-12-11T10:10:40.271Z,1.00
2023-12-11T10:13:09.126Z,1.20
2023-12-11T10:15:38.541Z,0.95
2023-12-11T10:18:09.727Z,1.10
2023-12-11T10:20:40.346Z,1.08
2023-12-11T10:23:17.205Z,0.60
2023-12-11T10:25:48.441Z,0.90
2023-12-11T10:28:18.394Z,0.90
2023-12-11T10:30:57.940Z,0.88
2023-12-11T10:33:28.364Z,1.10
2023-12-11T10:36:10.850Z,1.30
2023-12-11T10:38:40.089Z,1.30
2023-12-11T10:41:10.427Z,1.10
2023-12-11T10:43:56.166Z,1.25
2023-12-11T10:46:32.449Z,0.50
2023-12-11T10:49:01.631Z,0.70
2023-12-11T10:51:31.056Z,0.90
2023-12-11T10:54:00.260Z,0.95
2023-12-11T10:56:30.320Z,1.10
2023-12-11T10:59:00.099Z,1.30
2023-12-11T11:01:29.048Z,1.00
2023-12-11T11:03:57.664Z,1.20
2023-12-11T11:06:27.266Z,0.63
2023-12-11T11:09:03.723Z,1.30
2023-12-11T11:11:39.185Z,1.20
2023-12-11T11:14:29.860Z,1.50
2023-12-11T11:17:00.082Z,1.13
2023-12-11T11:19:30.951Z,0.98
2023-12-11T11:22:31.574Z,1.00
2023-12-11T11:25:38.474Z,1.25
2023-12-11T11:28:11.972Z,1.23
2023-12-11T11:30:53.485Z,1.60
2023-12-11T11:33:23.555Z,1.77
2023-12-11T11:35:53.760Z,1.77
2023-12-11T11:38:23.100Z,1.67
2023-12-11T11:40:52.810Z,1.60
2023-12-11T11:43:22.711Z,2.00
2023-12-11T11:45:57.006Z,2.00
2023-12-11T11:48:42.786Z,2.70
2023-12-11T11:51:11.886Z,2.22
2023-12-11T11:53:41.607Z,2.40
2023-12-11T11:56:10.714Z,2.70
2023-12-11T11:58:40.515Z,2.50
2023-12-11T12:01:09.154Z,2.70
2023-12-11T12:03:44.219Z,2.03
2023-12-11T12:06:15.442Z,1.48
2023-12-11T12:08:46.896Z,1.40
2023-12-11T12:11:16.535Z,1.20
2023-12-11T12:13:46.311Z,1.48
2023-12-11T12:16:14.629Z,1.00
2023-12-11T12:18:51.750Z,1.27
2023-12-11T12:21:20.099Z,1.27
2023-12-11T12:23:48.380Z,1.00
2023-12-11T12:26:17.111Z,1.40
2023-12-11T12:28:46.892Z,1.45
2023-12-11T12:31:15.350Z,1.10
2023-12-11T12:33:43.971Z,0.98
2023-12-11T12:36:12.848Z,1.40
2023-12-11T12:38:42.146Z,1.48
2023-12-11T12:41:13.773Z,1.48
2023-12-11T12:43:42.198Z,1.30
2023-12-11T12:46:11.936Z,1.45
2023-12-11T12:48:40.388Z,2.70
2023-12-11T12:51:10.441Z,1.80
2023-12-11T12:53:48.155Z,2.17
2023-12-11T12:56:19.108Z,2.00
2023-12-11T12:58:49.080Z,1.50
2023-12-11T13:01:18.927Z,1.95
2023-12-11T13:03:47.351Z,2.30
2023-12-11T13:06:28.473Z,2.13
2023-12-11T13:08:56.788Z,1.98
2023-12-11T13:11:40.476Z,1.98
2023-12-11T13:14:10.330Z,2.40
2023-12-11T13:16:40.229Z,1.60
2023-12-11T13:19:08.771Z,2.00
2023-12-11T13:21:37.264Z,2.20
2023-12-11T13:24:06.887Z,1.90
2023-12-11T13:26:35.115Z,2.28
2023-12-11T13:29:04.553Z,2.28
2023-12-11T13:31:32.941Z,3.08
2023-12-11T13:34:03.290Z,1.90
2023-12-11T13:36:31.639Z,1.70
2023-12-11T13:38:59.960Z,2.10
2023-12-11T13:41:28.495Z,1.67
2023-12-11T13:43:56.835Z,1.65
2023-12-11T13:46:25.420Z,2.38
2023-12-11T13:48:53.829Z,1.55
2023-12-11T13:51:23.704Z,1.25
2023-12-11T13:53:52.112Z,1.30
2023-12-11T13:56:20.697Z,1.77
2023-12-11T13:58:50.024Z,2.20
2023-12-11T14:01:18.622Z,3.13
2023-12-11T14:03:47.105Z,3.40
2023-12-11T14:06:15.722Z,2.63
2023-12-11T14:08:44.498Z,0.80
2023-12-11T14:11:12.753Z,1.23
2023-12-11T14:13:40.973Z,1.40
2023-12-11T14:16:10.346Z,0.77
2023-12-11T14:18:42.260Z,1.30
2023-12-11T14:21:11.908Z,1.15
2023-12-11T14:23:40.557Z,1.10
2023-12-11T14:26:10.289Z,1.15
2023-12-11T14:28:38.535Z,1.60
2023-12-11T14:31:11.802Z,1.80
2023-12-11T14:33:40.585Z,0.95
2023-12-11T14:36:15.517Z,1.27
2023-12-11T14:38:50.914Z,1.20
2023-12-11T14:41:20.573Z,1.00
2023-12-11T14:43:48.859Z,1.00
2023-12-11T14:46:17.206Z,1.75
2023-12-11T14:48:46.603Z,1.38
2023-12-11T14:51:14.966Z,1.10
2023-12-11T14:53:43.274Z,1.20
2023-12-11T14:56:12.676Z,1.70
2023-12-11T14:58:42.361Z,1.40
2023-12-11T15:01:10.752Z,1.20
2023-12-11T15:03:39.063Z,1.42
2023-12-11T15:06:08.301Z,2.17
2023-12-11T15:08:36.516Z,1.30
2023-12-11T15:11:04.927Z,1.30
2023-12-11T15:13:33.210Z,1.38
2023-12-11T15:16:04.182Z,2.10
2023-12-11T15:18:32.593Z,1.97
2023-12-11T15:21:00.934Z,2.00
2023-12-11T15:23:29.218Z,2.00
2023-12-11T15:25:58.191Z,1.65
2023-12-11T15:28:26.585Z,2.03
2023-12-11T15:31:12.404Z,2.13
2023-12-11T15:33:44.404Z,2.28
2023-12-11T15:36:16.598Z,1.50
2023-12-11T15:38:45.043Z,1.45
2023-12-11T15:41:14.013Z,1.58
2023-12-11T15:43:43.681Z,2.15
2023-12-11T15:46:12.141Z,1.80
2023-12-11T15:48:44.781Z,1.60
2023-12-11T15:51:17.055Z,1.67
2023-12-11T15:53:46.344Z,2.03
2023-12-11T15:56:17.413Z,2.30
2023-12-11T15:58:46.598Z,2.80
2023-12-11T16:01:16.183Z,2.38
2023-12-11T16:03:45.088Z,1.98
2023-12-11T16:06:14.964Z,2.60
2023-12-11T16:08:43.320Z,2.42
2023-12-11T16:11:15.841Z,2.22
2023-12-11T16:13:44.200Z,2.28
2023-12-11T16:16:13.351Z,2.15
2023-12-11T16:18:42.580Z,1.70
2023-12-11T16:21:10.991Z,1.90
2023-12-11T16:23:40.759Z,1.88
2023-12-11T16:26:15.398Z,1.67
2023-12-11T16:28:43.785Z,1.77
2023-12-11T16:31:12.371Z,1.70
2023-12-11T16:33:41.274Z,1.50
2023-12-11T16:36:14.322Z,1.50
2023-12-11T16:38:44.455Z,1.60
2023-12-11T16:41:12.812Z,1.60
2023-12-11T16:43:49.294Z,1.58
2023-12-11T16:46:18.329Z,1.60
2023-12-11T16:48:46.859Z,1.67
2023-12-11T16:51:15.320Z,1.30
2023-12-11T16:53:47.080Z,1.70
2023-12-11T16:56:16.215Z,2.00
2023-12-11T16:58:44.833Z,1.85
2023-12-11T17:01:14.718Z,2.30
2023-12-11T17:03:43.503Z,2.70
2023-12-11T17:06:16.804Z,1.90
2023-12-11T17:08:47.097Z,2.45
2023-12-11T17:11:15.552Z,1.98
2023-12-11T17:13:43.826Z,2.75
2023-12-11T17:16:12.084Z,3.53
2023-12-11T17:18:42.199Z,4.00
2023-12-11T17:21:15.840Z,3.58
2023-12-11T17:23:51.297Z,3.80
2023-12-11T17:26:19.786Z,3.28
2023-12-11T17:28:48.066Z,2.95
2023-12-11T17:31:16.342Z,3.67
2023-12-11T17:33:44.700Z,2.92
2023-12-11T17:36:13.178Z,2.97
2023-12-11T17:38:41.466Z,2.90
2023-12-11T17:41:11.293Z,2.10
2023-12-11T17:43:39.556Z,2.10
2023-12-11T17:46:08.035Z,2.35
2023-12-11T17:48:37.225Z,2.42
2023-12-11T17:51:08.292Z,1.52
2023-12-11T17:53:37.860Z,1.45
2023-12-11T17:56:09.627Z,2.08
2023-12-11T17:58:42.436Z,1.70
2023-12-11T18:01:11.744Z,1.75
2023-12-11T18:03:40.635Z,2.08
2023-12-11T18:06:17.184Z,2.50
2023-12-11T18:08:45.893Z,2.22
2023-12-11T18:11:14.789Z,2.90
2023-12-11T18:13:46.066Z,2.90
2023-12-11T18:16:14.913Z,2.97
2023-12-11T18:18:43.516Z,2.50
2023-12-11T18:21:11.830Z,3.55
2023-12-11T18:23:40.065Z,3.60
2023-12-11T18:26:12.984Z,3.55
2023-12-11T18:28:41.328Z,3.05
2023-12-11T18:31:11.168Z,3.00
2023-12-11T18:33:40.715Z,3.20
2023-12-11T18:36:09.733Z,3.22
2023-12-11T18:38:38.735Z,3.03
2023-12-11T18:41:07.081Z,2.90
2023-12-11T18:43:35.774Z,2.53
2023-12-11T18:46:04.148Z,3.38
2023-12-11T18:48:33.859Z,2.28
2023-12-11T18:51:02.223Z,2.05
2023-12-11T18:53:30.523Z,2.40
2023-12-11T18:56:00.849Z,2.83
2023-12-11T18:58:29.917Z,2.22
2023-12-11T19:01:01.028Z,2.40
2023-12-11T19:03:29.556Z,2.42
2023-12-11T19:05:59.238Z,2.78
2023-12-11T19:08:27.521Z,4.28
2023-12-11T19:10:55.791Z,3.30
2023-12-11T19:13:24.422Z,3.05
2023-12-11T19:15:53.000Z,1.40
2023-12-11T19:18:22.691Z,2.00
2023-12-11T19:20:52.375Z,1.42
2023-12-11T19:23:22.077Z,1.60
2023-12-11T19:25:52.516Z,1.80
2023-12-11T19:28:21.765Z,1.90
2023-12-11T19:30:50.232Z,1.90
2023-12-11T19:33:18.631Z,1.98
2023-12-11T19:35:46.924Z,2.88
2023-12-11T19:38:15.162Z,3.00
2023-12-11T19:40:44.943Z,3.00
2023-12-11T19:43:14.450Z,2.42
2023-12-11T19:45:42.775Z,2.15
2023-12-11T19:48:11.176Z,2.28
2023-12-11T19:50:39.642Z,1.92
2023-12-11T19:53:08.003Z,2.30
2023-12-11T19:55:36.311Z,2.67
2023-12-11T19:58:06.037Z,3.33
2023-12-11T20:00:34.363Z,2.72
2023-12-11T20:03:02.642Z,3.13
2023-12-11T20:05:31.004Z,2.95
2023-12-11T20:07:59.306Z,2.72
2023-12-11T20:10:27.820Z,2.38
2023-12-11T20:12:56.178Z,2.47
2023-12-11T20:15:25.873Z,2.40
2023-12-11T20:17:54.139Z,3.22
2023-12-11T20:20:22.477Z,2.63
2023-12-11T20:22:50.701Z,3.47
2023-12-11T20:25:18.971Z,3.55
2023-12-11T20:27:47.373Z,3.28
2023-12-11T20:30:17.441Z,3.75
2023-12-11T20:32:47.251Z,4.72
2023-12-11T20:35:15.700Z,3.20
2023-12-11T20:37:44.055Z,3.45
2023-12-11T20:40:13.541Z,3.10
2023-12-11T20:42:41.859Z,2.58
2023-12-11T20:45:10.707Z,2.63
2023-12-11T20:47:39.007Z,2.90
2023-12-11T20:50:13.019Z,3.05
2023-12-11T20:52:41.718Z,2.03
2023-12-11T20:55:10.725Z,2.25
2023-12-11T20:57:39.072Z,2.75
2023-12-11T21:00:11.393Z,2.88
2023-12-11T21:02:39.859Z,2.65
2023-12-11T21:05:10.896Z,2.55
2023-12-11T21:07:42.476Z,2.50
2023-12-11T21:12:39.476Z,1.48
2023-12-11T21:15:08.654Z,2.45
2023-12-11T21:17:41.727Z,2.75
2023-12-11T21:20:13.259Z,2.65
2023-12-11T21:22:42.167Z,3.28
2023-12-11T21:25:11.464Z,3.50
2023-12-11T21:27:40.371Z,3.30
2023-12-11T21:30:11.116Z,3.42
2023-12-11T21:32:44.105Z,3.60
2023-12-11T21:35:14.825Z,3.60
2023-12-11T21:37:43.630Z,3.45
2023-12-11T21:40:12.852Z,3.45
2023-12-11T21:42:42.734Z,3.88
2023-12-11T21:45:11.504Z,3.00
2023-12-11T21:47:39.882Z,2.83
2023-12-11T21:50:10.434Z,2.50
2023-12-11T21:52:40.191Z,2.50
2023-12-11T21:55:09.275Z,2.40
2023-12-11T21:57:37.586Z,2.95
2023-12-11T22:00:07.042Z,2.60
2023-12-11T22:02:35.298Z,2.92
2023-12-11T22:05:03.649Z,2.85
2023-12-11T22:07:32.242Z,3.08
2023-12-11T22:10:02.331Z,2.88
2023-12-11T22:12:30.667Z,3.20
2023-12-11T22:14:58.924Z,2.78
2023-12-11T22:17:27.190Z,3.00
2023-12-11T22:19:55.484Z,2.60
2023-12-11T22:22:23.797Z,2.47
2023-12-11T22:24:52.130Z,2.17
2023-12-11T22:27:21.830Z,2.40
2023-12-11T22:29:50.118Z,2.00
2023-12-11T22:32:18.360Z,1.60
2023-12-11T22:34:46.790Z,1.63
2023-12-11T22:37:17.052Z,1.50
2023-12-11T22:39:45.623Z,1.90
2023-12-11T22:42:13.895Z,1.65
2023-12-11T22:44:43.987Z,2.40
2023-12-11T22:47:12.660Z,3.13
2023-12-11T22:49:40.983Z,3.22
2023-12-11T22:52:09.397Z,3.35
2023-12-11T22:54:37.637Z,2.85
2023-12-11T22:57:05.343Z,2.88
2023-12-11T22:59:33.652Z,2.15
2023-12-11T23:02:04.553Z,2.40
2023-12-11T23:04:33.123Z,2.60
2023-12-11T23:07:01.445Z,2.42
2023-12-11T23:09:29.755Z,2.80
2023-12-11T23:11:57.994Z,2.97
2023-12-11T23:14:26.253Z,2.63
2023-12-11T23:16:54.645Z,2.50
2023-12-11T23:19:24.385Z,2.40
2023-12-11T23:21:53.285Z,2.42
2023-12-11T23:24:21.613Z,2.17
2023-12-11T23:26:49.876Z,1.98
2023-12-11T23:29:18.238Z,2.08
2023-12-11T23:31:46.462Z,2.17
2023-12-11T23:34:15.594Z,2.08
2023-12-11T23:36:45.524Z,1.58
2023-12-11T23:39:14.026Z,1.40
2023-12-11T23:41:42.838Z,0.88
2023-12-11T23:44:11.324Z,0.80
2023-12-11T23:46:39.891Z,0.82
2023-12-11T23:49:08.532Z,0.90
2023-12-11T23:51:37.080Z,0.90
2023-12-11T23:54:07.168Z,1.00
2023-12-11T23:56:35.427Z,1.30
2023-12-11T23:59:06.266Z,0.80
